sensor_id;sensor_type;location;lat;lon;timestamp;temperature;humidity
2543;DHT22;1116;51.502;7.414;2022-08-02T00:00:12;16.90;92.90
2543;DHT22;1116;51.502;7.414;2022-08-02T00:03:05;17.20;91.00
2543;DHT22;1116;51.502;7.414;2022-08-02T00:05:51;16.80;92.40
2543;DHT22;1116;51.502;7.414;2022-08-02T00:08:55;16.90;90.80
2543;DHT22;1116;51.502;7.414;2022-08-02T00:11:26;16.60;94.40
2543;DHT22;1116;51.502;7.414;2022-08-02T00:14:06;17.30;92.60
2543;DHT22;1116;51.502;7.414;2022-08-02T00:16:53;16.80;91.90
2543;DHT22;1116;51.502;7.414;2022-08-02T00:19:28;17.10;91.40
2543;DHT22;1116;51.502;7.414;2022-08-02T00:22:26;16.70;94.10
2543;DHT22;1116;51.502;7.414;2022-08-02T00:25:42;16.60;92.30
2543;DHT22;1116;51.502;7.414;2022-08-02T00:29:02;16.70;96.30
2543;DHT22;1116;51.502;7.414;2022-08-02T00:32:10;16.60;91.60
2543;DHT22;1116;51.502;7.414;2022-08-02T00:35:02;16.60;95.70
2543;DHT22;1116;51.502;7.414;2022-08-02T00:38:03;16.60;94.40
2543;DHT22;1116;51.502;7.414;2022-08-02T00:40:53;16.50;94.20
2543;DHT22;1116;51.502;7.414;2022-08-02T00:43:51;16.40;99.90
2543;DHT22;1116;51.502;7.414;2022-08-02T00:46:28;16.50;99.90
2543;DHT22;1116;51.502;7.414;2022-08-02T00:49:22;16.40;99.90
2543;DHT22;1116;51.502;7.414;2022-08-02T02:49:42;16.00;99.90
2543;DHT22;1116;51.502;7.414;2022-08-02T02:52:46;15.70;99.90
2543;DHT22;1116;51.502;7.414;2022-08-02T02:55:26;15.70;99.90
2543;DHT22;1116;51.502;7.414;2022-08-02T02:58:31;15.80;99.90
2543;DHT22;1116;51.502;7.414;2022-08-02T03:01:17;15.70;99.90
2543;DHT22;1116;51.502;7.414;2022-08-02T03:04:26;15.50;99.90
2543;DHT22;1116;51.502;7.414;2022-08-02T03:07:28;15.30;99.90
2543;DHT22;1116;51.502;7.414;2022-08-02T03:10:05;15.20;99.90
2543;DHT22;1116;51.502;7.414;2022-08-02T03:12:56;15.60;99.90
2543;DHT22;1116;51.502;7.414;2022-08-02T03:15:41;15.60;99.90
2543;DHT22;1116;51.502;7.414;2022-08-02T03:18:36;15.10;99.90
2543;DHT22;1116;51.502;7.414;2022-08-02T03:21:28;15.60;99.90
2543;DHT22;1116;51.502;7.414;2022-08-02T03:24:31;15.60;99.90
2543;DHT22;1116;51.502;7.414;2022-08-02T03:27:22;15.60;99.90
2543;DHT22;1116;51.502;7.414;2022-08-02T03:30:36;15.50;99.90
2543;DHT22;1116;51.502;7.414;2022-08-02T03:33:21;15.20;99.90
2543;DHT22;1116;51.502;7.414;2022-08-02T03:36:10;15.40;99.90
2543;DHT22;1116;51.502;7.414;2022-08-02T03:39:09;15.20;99.90
2543;DHT22;1116;51.502;7.414;2022-08-02T03:41:56;15.40;99.90
2543;DHT22;1116;51.502;7.414;2022-08-02T03:45:09;15.30;99.90
2543;DHT22;1116;51.502;7.414;2022-08-02T03:48:06;15.20;99.90
2543;DHT22;1116;51.502;7.414;2022-08-02T03:51:06;15.70;99.90
2543;DHT22;1116;51.502;7.414;2022-08-02T03:54:24;15.20;99.90
2543;DHT22;1116;51.502;7.414;2022-08-02T03:57:27;15.30;99.90
2543;DHT22;1116;51.502;7.414;2022-08-02T04:00:27;15.20;99.90
2543;DHT22;1116;51.502;7.414;2022-08-02T04:03:21;14.50;99.90
2543;DHT22;1116;51.502;7.414;2022-08-02T04:06:24;15.10;99.90
2543;DHT22;1116;51.502;7.414;2022-08-02T04:09:26;15.20;99.90
2543;DHT22;1116;51.502;7.414;2022-08-02T04:12:10;15.10;99.90
2543;DHT22;1116;51.502;7.414;2022-08-02T04:15:18;15.10;99.90
2543;DHT22;1116;51.502;7.414;2022-08-02T04:18:08;15.30;99.90
2543;DHT22;1116;51.502;7.414;2022-08-02T04:20:52;15.30;99.90
2543;DHT22;1116;51.502;7.414;2022-08-02T04:23:48;15.40;99.90
2543;DHT22;1116;51.502;7.414;2022-08-02T04:26:43;15.50;99.90
2543;DHT22;1116;51.502;7.414;2022-08-02T04:29:23;15.50;99.90
2543;DHT22;1116;51.502;7.414;2022-08-02T04:32:22;15.70;99.90
2543;DHT22;1116;51.502;7.414;2022-08-02T04:34:59;15.70;99.90
2543;DHT22;1116;51.502;7.414;2022-08-02T04:37:54;15.50;99.90
2543;DHT22;1116;51.502;7.414;2022-08-02T04:40:52;15.30;99.90
2543;DHT22;1116;51.502;7.414;2022-08-02T04:43:30;15.60;99.90
2543;DHT22;1116;51.502;7.414;2022-08-02T04:46:17;15.50;99.90
2543;DHT22;1116;51.502;7.414;2022-08-02T04:49:35;15.60;99.90
2543;DHT22;1116;51.502;7.414;2022-08-02T05:07:18;16.10;99.90
2543;DHT22;1116;51.502;7.414;2022-08-02T05:10:02;15.70;99.90
2543;DHT22;1116;51.502;7.414;2022-08-02T05:12:55;16.00;99.90
2543;DHT22;1116;51.502;7.414;2022-08-02T05:15:50;16.50;99.90
2543;DHT22;1116;51.502;7.414;2022-08-02T05:18:41;16.70;99.90
2543;DHT22;1116;51.502;7.414;2022-08-02T05:21:36;16.70;99.90
2543;DHT22;1116;51.502;7.414;2022-08-02T05:24:35;17.10;99.90
2543;DHT22;1116;51.502;7.414;2022-08-02T05:27:16;17.20;99.90
2543;DHT22;1116;51.502;7.414;2022-08-02T05:29:58;17.30;99.90
2543;DHT22;1116;51.502;7.414;2022-08-02T05:32:52;17.30;99.90
2543;DHT22;1116;51.502;7.414;2022-08-02T05:36:02;17.30;99.90
2543;DHT22;1116;51.502;7.414;2022-08-02T05:39:02;17.60;99.90
2543;DHT22;1116;51.502;7.414;2022-08-02T05:42:04;17.80;99.90
2543;DHT22;1116;51.502;7.414;2022-08-02T05:44:59;17.70;99.90
2543;DHT22;1116;51.502;7.414;2022-08-02T05:47:57;17.70;99.90
2543;DHT22;1116;51.502;7.414;2022-08-02T05:51:04;18.00;99.90
2543;DHT22;1116;51.502;7.414;2022-08-02T05:54:08;18.20;99.90
2543;DHT22;1116;51.502;7.414;2022-08-02T05:57:29;17.90;99.90
2543;DHT22;1116;51.502;7.414;2022-08-02T06:00:23;18.00;99.90
2543;DHT22;1116;51.502;7.414;2022-08-02T06:03:29;18.30;99.90
2543;DHT22;1116;51.502;7.414;2022-08-02T06:06:33;18.50;99.90
2543;DHT22;1116;51.502;7.414;2022-08-02T06:09:39;18.50;99.90
2543;DHT22;1116;51.502;7.414;2022-08-02T06:18:37;19.00;99.90
2543;DHT22;1116;51.502;7.414;2022-08-02T06:21:36;19.10;99.90
2543;DHT22;1116;51.502;7.414;2022-08-02T06:24:49;19.80;99.90
2543;DHT22;1116;51.502;7.414;2022-08-02T06:27:35;19.40;99.90
2543;DHT22;1116;51.502;7.414;2022-08-02T06:30:29;19.40;99.90
2543;DHT22;1116;51.502;7.414;2022-08-02T06:33:23;19.90;99.90
2543;DHT22;1116;51.502;7.414;2022-08-02T06:36:08;20.20;98.50
2543;DHT22;1116;51.502;7.414;2022-08-02T06:39:04;20.20;94.20
2543;DHT22;1116;51.502;7.414;2022-08-02T06:42:10;20.40;91.00
2543;DHT22;1116;51.502;7.414;2022-08-02T06:44:59;20.70;88.70
2543;DHT22;1116;51.502;7.414;2022-08-02T06:47:51;20.90;81.20
2543;DHT22;1116;51.502;7.414;2022-08-02T06:50:41;21.10;71.50
2543;DHT22;1116;51.502;7.414;2022-08-02T06:53:37;21.20;65.90
2543;DHT22;1116;51.502;7.414;2022-08-02T06:56:39;21.20;61.00
2543;DHT22;1116;51.502;7.414;2022-08-02T07:02:25;21.70;54.30
2543;DHT22;1116;51.502;7.414;2022-08-02T07:05:11;21.80;49.10
2543;DHT22;1116;51.502;7.414;2022-08-02T07:07:56;21.80;48.30
2543;DHT22;1116;51.502;7.414;2022-08-02T10:49:57;26.30;1.00
2543;DHT22;1116;51.502;7.414;2022-08-02T10:53:28;26.30;1.00
2543;DHT22;1116;51.502;7.414;2022-08-02T10:57:37;26.20;1.00
2543;DHT22;1116;51.502;7.414;2022-08-02T10:59:34;26.20;1.00
2543;DHT22;1116;51.502;7.414;2022-08-02T11:25:37;27.00;1.00
2543;DHT22;1116;51.502;7.414;2022-08-02T11:28:37;27.40;1.00
2543;DHT22;1116;51.502;7.414;2022-08-02T11:35:09;27.50;1.00
2543;DHT22;1116;51.502;7.414;2022-08-02T11:38:17;26.90;1.00
2543;DHT22;1116;51.502;7.414;2022-08-02T11:44:28;26.90;1.00
2543;DHT22;1116;51.502;7.414;2022-08-02T11:47:11;26.60;1.00
2543;DHT22;1116;51.502;7.414;2022-08-02T11:50:12;27.20;1.00
2543;DHT22;1116;51.502;7.414;2022-08-02T11:53:33;27.00;1.00
2543;DHT22;1116;51.502;7.414;2022-08-02T11:56:29;27.00;1.00
2543;DHT22;1116;51.502;7.414;2022-08-02T11:59:22;27.40;1.00
2543;DHT22;1116;51.502;7.414;2022-08-02T12:01:55;27.30;1.00
2543;DHT22;1116;51.502;7.414;2022-08-02T12:04:27;27.10;1.00
2543;DHT22;1116;51.502;7.414;2022-08-02T12:07:06;27.20;1.00
2543;DHT22;1116;51.502;7.414;2022-08-02T12:09:59;27.10;1.00
2543;DHT22;1116;51.502;7.414;2022-08-02T12:13:00;26.80;1.00
2543;DHT22;1116;51.502;7.414;2022-08-02T13:42:21;28.50;1.00
2543;DHT22;1116;51.502;7.414;2022-08-02T13:45:26;28.80;1.00
2543;DHT22;1116;51.502;7.414;2022-08-02T13:48:20;29.00;1.00
2543;DHT22;1116;51.502;7.414;2022-08-02T13:51:08;29.10;1.00
2543;DHT22;1116;51.502;7.414;2022-08-02T13:54:07;28.80;1.00
2543;DHT22;1116;51.502;7.414;2022-08-02T13:57:18;29.10;1.00
2543;DHT22;1116;51.502;7.414;2022-08-02T14:00:15;29.00;1.00
2543;DHT22;1116;51.502;7.414;2022-08-02T14:03:19;29.10;1.00
2543;DHT22;1116;51.502;7.414;2022-08-02T14:06:26;29.40;1.00
2543;DHT22;1116;51.502;7.414;2022-08-02T14:09:21;28.80;1.00
2543;DHT22;1116;51.502;7.414;2022-08-02T14:16:26;28.40;1.00
2543;DHT22;1116;51.502;7.414;2022-08-02T14:22:46;28.90;1.00
2543;DHT22;1116;51.502;7.414;2022-08-02T14:26:04;29.00;1.00
2543;DHT22;1116;51.502;7.414;2022-08-02T14:29:09;28.80;1.00
2543;DHT22;1116;51.502;7.414;2022-08-02T14:32:52;29.10;1.00
2543;DHT22;1116;51.502;7.414;2022-08-02T14:35:39;28.90;1.00
2543;DHT22;1116;51.502;7.414;2022-08-02T14:38:36;28.60;1.00
2543;DHT22;1116;51.502;7.414;2022-08-02T15:03:08;28.60;1.00
2543;DHT22;1116;51.502;7.414;2022-08-02T15:05:59;28.90;1.00
2543;DHT22;1116;51.502;7.414;2022-08-02T15:09:15;28.70;1.00
2543;DHT22;1116;51.502;7.414;2022-08-02T15:12:08;28.70;1.00
2543;DHT22;1116;51.502;7.414;2022-08-02T15:15:08;29.00;1.00
2543;DHT22;1116;51.502;7.414;2022-08-02T15:19:11;28.70;1.00
2543;DHT22;1116;51.502;7.414;2022-08-02T15:23:17;28.70;1.00
2543;DHT22;1116;51.502;7.414;2022-08-02T15:26:12;28.70;1.00
